Time;durP1;ratioP1;P1;durP2;ratioP2;P2;SDS_P1;SDS_P2;PMS_P1;PMS_P2;Temp;Humidity;BMP_temperature;BMP_pressure;BME280_temperature;BME280_humidity;BME280_pressure;Samples;Min_cycle;Max_cycle;Signal;HPM_P1;HPM_P2
2023/06/16 00:00:25;;;;;;;;;;;;;;;20.50;47.18;99224.84;4493804;31;33728;-81
2023/06/16 00:02:57;;;;;;;;;;;;;;;20.64;46.89;99229.28;4493804;31;34073;-82
2023/06/16 00:05:28;;;;;;;;;;;;;;;20.62;46.99;99224.09;4487392;31;34254;-83
2023/06/16 00:07:58;;;;;;;;;;;;;;;20.61;47.10;99226.81;4490815;31;33845;-81
2023/06/16 00:10:27;;;;;;;;;;;;;;;20.63;47.33;99222.31;4486326;31;32737;-80
2023/06/16 00:12:59;;;;;;;;;;;;;;;20.59;47.20;99219.03;4494442;31;35252;-81
2023/06/16 00:15:29;;;;;;;;;;;;;;;20.76;46.89;99220.62;4493141;31;33294;-81
2023/06/16 00:17:58;;;;;;;;;;;;;;;20.64;47.33;99224.03;4499087;31;34151;-81
2023/06/16 00:20:26;;;;;;;;;;;;;;;20.76;46.96;99220.62;4494587;31;34189;-81
2023/06/16 00:22:57;;;;;;;;;;;;;;;20.64;47.58;99219.59;4494753;31;34249;-81
2023/06/16 00:25:26;;;;;;;;;;;;;;;20.70;47.60;99218.34;4494387;31;34681;-83
2023/06/16 00:27:55;;;;;;;;;;;;;;;20.78;47.36;99217.84;4494410;31;34710;-82
2023/06/16 00:30:28;;;;;;;;;;;;;;;20.66;47.56;99208.97;4485999;31;33305;-80
2023/06/16 00:32:56;;;;;;;;;;;;;;;20.76;47.64;99207.44;4486157;31;34655;-81
2023/06/16 00:35:25;;;;;;;;;;;;;;;20.74;47.87;99213.75;4471885;32;33667;-81
2023/06/16 00:37:54;;;;;;;;;;;;;;;20.80;47.95;99208.94;4477578;31;34879;-81
2023/06/16 00:40:23;;;;;;;;;;;;;;;20.83;47.54;99206.09;4489768;31;34045;-82
2023/06/16 00:42:53;;;;;;;;;;;;;;;21.03;47.41;99207.47;4478400;31;33610;-82
2023/06/16 00:45:22;;;;;;;;;;;;;;;20.83;47.89;99206.09;4485919;31;33409;-82
2023/06/16 00:47:52;;;;;;;;;;;;;;;20.85;47.95;99204.22;4480578;31;34485;-81
2023/06/16 00:50:23;;;;;;;;;;;;;;;20.70;48.47;99205.16;4485807;31;33284;-81
2023/06/16 00:52:52;;;;;;;;;;;;;;;20.58;48.84;99203.31;4483618;32;33185;-81
2023/06/16 00:55:21;;;;;;;;;;;;;;;20.79;48.45;99204.59;4487758;31;33839;-84
2023/06/16 00:57:50;;;;;;;;;;;;;;;20.54;49.23;99201.75;4493398;31;33844;-80
2023/06/16 01:00:20;;;;;;;;;;;;;;;20.57;49.42;99201.63;4493918;31;32865;-80
2023/06/16 01:02:49;;;;;;;;;;;;;;;20.54;49.47;99199.13;4498517;31;34361;-82
2023/06/16 01:05:23;;;;;;;;;;;;;;;20.55;49.63;99190.28;4493722;31;34084;-82
2023/06/16 01:07:53;;;;;;;;;;;;;;;20.57;49.85;99198.97;4483733;31;34115;-82
2023/06/16 01:10:25;;;;;;;;;;;;;;;20.56;49.75;99192.87;4478837;31;33727;-81
2023/06/16 01:12:57;;;;;;;;;;;;;;;20.44;50.17;99194.44;4478950;32;34258;-81
2023/06/16 01:15:26;;;;;;;;;;;;;;;20.43;50.42;99192.72;4483139;32;34183;-82
2023/06/16 01:17:56;;;;;;;;;;;;;;;20.67;49.85;99192.19;4479304;32;34709;-82
2023/06/16 01:20:33;;;;;;;;;;;;;;;20.58;50.32;99184.84;4478558;32;33772;-80
2023/06/16 01:23:04;;;;;;;;;;;;;;;20.57;50.30;99183.19;4483350;31;33366;-82
2023/06/16 01:25:38;;;;;;;;;;;;;;;20.45;50.80;99182.94;4483525;31;34811;-82
2023/06/16 01:28:12;;;;;;;;;;;;;;;20.38;51.00;99189.53;4483196;31;33452;-80
2023/06/16 01:30:42;;;;;;;;;;;;;;;20.46;50.82;99186.44;4476968;31;33871;-82
2023/06/16 01:33:11;;;;;;;;;;;;;;;20.64;50.43;99176.56;4477468;31;34290;-81
2023/06/16 01:35:39;;;;;;;;;;;;;;;20.50;50.98;99174.75;4477900;31;34598;-82
2023/06/16 01:38:08;;;;;;;;;;;;;;;20.56;51.15;99178.81;4484232;31;33508;-80
2023/06/16 01:40:39;;;;;;;;;;;;;;;20.64;50.81;99173.94;4477944;31;33324;-81
2023/06/16 01:43:08;;;;;;;;;;;;;;;20.56;50.97;99170.91;4484688;31;34343;-83
2023/06/16 01:45:36;;;;;;;;;;;;;;;20.63;50.71;99173.09;4479963;31;33696;-82
2023/06/16 01:48:05;;;;;;;;;;;;;;;20.57;51.09;99178.75;4493524;31;34871;-83
2023/06/16 01:50:34;;;;;;;;;;;;;;;20.52;50.82;99167.63;4490172;31;33157;-82
2023/06/16 01:53:03;;;;;;;;;;;;;;;20.56;50.99;99171.78;4493793;31;33452;-81
2023/06/16 01:55:34;;;;;;;;;;;;;;;20.60;50.65;99169.78;4493818;31;33584;-83
2023/06/16 01:58:03;;;;;;;;;;;;;;;20.56;50.88;99168.28;4487834;31;34060;-83
2023/06/16 02:00:33;;;;;;;;;;;;;;;20.63;50.78;99169.59;4495359;31;32805;-83
2023/06/16 02:03:05;;;;;;;;;;;;;;;20.57;51.04;99167.38;4487507;31;33704;-81
2023/06/16 02:05:35;;;;;;;;;;;;;;;20.53;51.12;99173.72;4490089;31;32807;-83
2023/06/16 02:08:08;;;;;;;;;;;;;;;20.56;51.24;99178.81;4483304;31;33980;-83
2023/06/16 02:10:37;;;;;;;;;;;;;;;20.48;51.84;99162.63;4491441;31;32826;-82
2023/06/16 02:13:07;;;;;;;;;;;;;;;20.45;52.07;99169.78;4495389;31;34922;-83
2023/06/16 02:15:36;;;;;;;;;;;;;;;20.40;52.57;99163.94;4477867;31;34698;-81
2023/06/16 02:18:09;;;;;;;;;;;;;;;20.15;53.46;99172.53;4478118;32;34809;-83
2023/06/16 02:20:38;;;;;;;;;;;;;;;20.23;53.39;99169.41;4488676;31;33570;-82
2023/06/16 02:23:07;;;;;;;;;;;;;;;20.29;53.27;99169.03;4498586;31;34014;-80
2023/06/16 02:25:36;;;;;;;;;;;;;;;19.62;55.96;99182.66;4493854;31;34801;-82
2023/06/16 02:28:09;;;;;;;;;;;;;;;19.96;55.10;99175.41;4493712;31;34119;-84
2023/06/16 02:30:38;;;;;;;;;;;;;;;20.15;54.24;99180.44;4493371;31;33113;-81
2023/06/16 02:33:11;;;;;;;;;;;;;;;19.98;54.82;99170.91;4496613;31;34847;-82
2023/06/16 02:35:39;;;;;;;;;;;;;;;20.27;54.09;99180.59;4483861;31;33853;-82
2023/06/16 02:38:08;;;;;;;;;;;;;;;20.57;52.12;99170.00;4493497;31;33471;-83
2023/06/16 02:40:37;;;;;;;;;;;;;;;20.32;53.09;99166.22;4489030;31;33053;-81
2023/06/16 02:43:05;;;;;;;;;;;;;;;19.85;55.14;99177.84;4486578;31;34618;-83
2023/06/16 02:45:36;;;;;;;;;;;;;;;20.20;54.17;99167.81;4484524;31;34266;-82
2023/06/16 02:48:08;;;;;;;;;;;;;;;20.39;53.68;99169.31;4476755;31;34340;-82
2023/06/16 02:50:40;;;;;;;;;;;;;;;20.42;53.55;99164.72;4486745;31;32849;-83
2023/06/16 02:53:14;;;;;;;;;;;;;;;20.47;53.29;99167.06;4478230;32;34215;-81
2023/06/16 02:55:44;;;;;;;;;;;;;;;20.54;52.95;99163.09;4478264;31;34896;-83
2023/06/16 02:58:12;;;;;;;;;;;;;;;20.46;53.25;99150.41;4494129;31;33964;-82
2023/06/16 03:00:42;;;;;;;;;;;;;;;20.27;53.95;99162.16;4483675;31;33357;-84
2023/06/16 03:03:12;;;;;;;;;;;;;;;20.52;53.52;99161.50;4477064;31;34142;-82
2023/06/16 03:05:41;;;;;;;;;;;;;;;20.25;54.04;99165.75;4476695;31;33867;-81
2023/06/16 03:08:10;;;;;;;;;;;;;;;20.54;53.33;99168.38;4488683;31;34194;-83
2023/06/16 03:10:39;;;;;;;;;;;;;;;20.38;53.90;99173.72;4486731;31;33314;-81
2023/06/16 03:13:08;;;;;;;;;;;;;;;20.04;55.05;99167.06;4479754;31;33721;-81
2023/06/16 03:15:37;;;;;;;;;;;;;;;20.01;55.22;99165.47;4484168;31;34394;-82
2023/06/16 03:18:08;;;;;;;;;;;;;;;19.99;55.25;99156.78;4483026;31;33881;-80
2023/06/16 03:20:40;;;;;;;;;;;;;;;19.97;55.17;99163.09;4487074;31;33337;-82
2023/06/16 03:23:12;;;;;;;;;;;;;;;20.05;54.98;99168.72;4477906;31;35157;-82
2023/06/16 03:25:40;;;;;;;;;;;;;;;20.14;54.88;99169.97;4479116;31;36568;-84
2023/06/16 03:28:10;;;;;;;;;;;;;;;19.94;55.40;99166.75;4478797;31;34053;-82
2023/06/16 03:30:38;;;;;;;;;;;;;;;19.91;55.33;99164.31;4482952;31;32700;-82
2023/06/16 03:33:09;;;;;;;;;;;;;;;20.04;55.41;99173.16;4478711;31;33535;-81
2023/06/16 03:35:38;;;;;;;;;;;;;;;20.31;54.54;99166.31;4479029;31;34194;-83
2023/06/16 03:38:09;;;;;;;;;;;;;;;20.07;55.33;99169.50;4479082;31;33986;-82
2023/06/16 03:40:38;;;;;;;;;;;;;;;19.94;55.86;99164.13;4484586;31;33204;-82
2023/06/16 03:43:10;;;;;;;;;;;;;;;20.00;55.94;99162.91;4481992;31;33890;-82
2023/06/16 03:45:39;;;;;;;;;;;;;;;20.02;55.76;99164.50;4480411;31;34453;-83
2023/06/16 03:48:09;;;;;;;;;;;;;;;20.11;55.14;99170.16;4491374;31;34586;-81
2023/06/16 03:50:40;;;;;;;;;;;;;;;20.09;55.53;99169.41;4480194;31;33665;-82
2023/06/16 03:53:08;;;;;;;;;;;;;;;19.94;56.10;99168.56;4483778;31;33359;-84
2023/06/16 03:55:44;;;;;;;;;;;;;;;20.28;55.05;99169.13;4485535;31;34688;-84
2023/06/16 03:58:15;;;;;;;;;;;;;;;20.28;55.03;99169.13;4497426;31;34617;-82
2023/06/16 04:00:44;;;;;;;;;;;;;;;20.17;55.54;99165.34;4490639;31;33696;-81
2023/06/16 04:03:18;;;;;;;;;;;;;;;20.25;55.14;99162.28;4494424;31;33687;-81
2023/06/16 04:05:47;;;;;;;;;;;;;;;20.31;55.13;99161.88;4486935;31;34284;-82
2023/06/16 04:08:16;;;;;;;;;;;;;;;20.39;54.45;99162.28;4480227;31;32722;-83
2023/06/16 04:10:45;;;;;;;;;;;;;;;20.31;54.79;99151.34;4479114;32;33333;-80
2023/06/16 04:13:16;;;;;;;;;;;;;;;20.36;54.76;99161.59;4486213;31;34564;-82
2023/06/16 04:15:46;;;;;;;;;;;;;;;20.28;55.07;99164.72;4491254;31;34018;-82
2023/06/16 04:18:15;;;;;;;;;;;;;;;20.48;54.37;99176.66;4480581;31;34663;-83
2023/06/16 04:20:45;;;;;;;;;;;;;;;20.45;54.80;99169.78;4477289;31;33600;-82
2023/06/16 04:23:15;;;;;;;;;;;;;;;20.64;53.98;99168.66;4491576;31;33852;-83
2023/06/16 04:25:48;;;;;;;;;;;;;;;20.50;54.47;99168.66;4495929;31;34487;-81
2023/06/16 04:28:17;;;;;;;;;;;;;;;20.51;54.31;99172.97;4491069;31;34387;-82
2023/06/16 04:30:47;;;;;;;;;;;;;;;20.48;54.95;99175.81;4489675;31;33422;-81
2023/06/16 04:33:22;;;;;;;;;;;;;;;20.53;54.56;99165.81;4493575;31;34939;-81
2023/06/16 04:35:55;;;;;;;;;;;;;;;20.45;54.72;99174.22;4478525;31;34242;-83
2023/06/16 04:38:25;;;;;;;;;;;;;;;20.45;54.77;99175.03;4447845;31;1121803;-81
2023/06/16 04:40:55;;;;;;;;;;;;;;;20.57;54.83;99167.38;4479137;31;33276;-82
2023/06/16 04:43:24;;;;;;;;;;;;;;;20.75;54.67;99168.81;4490692;31;34110;-81
2023/06/16 04:45:53;;;;;;;;;;;;;;;21.19;54.01;99165.13;4478247;31;33972;-82
2023/06/16 04:48:22;;;;;;;;;;;;;;;21.54;52.22;99164.59;4485565;31;34214;-82
2023/06/16 04:50:52;;;;;;;;;;;;;;;21.65;51.65;99161.25;4494861;31;33010;-81
2023/06/16 04:53:23;;;;;;;;;;;;;;;21.61;52.00;99160.63;4482486;31;32884;-82
2023/06/16 04:55:52;;;;;;;;;;;;;;;21.42;52.85;99166.28;4478350;31;33330;-82
2023/06/16 04:58:20;;;;;;;;;;;;;;;21.54;51.65;99163.78;4479505;31;34275;-81
2023/06/16 05:00:50;;;;;;;;;;;;;;;21.46;52.42;99165.13;4486797;31;32774;-82
2023/06/16 05:03:19;;;;;;;;;;;;;;;21.60;52.73;99164.22;4485039;31;34238;-82
2023/06/16 05:05:48;;;;;;;;;;;;;;;21.85;51.84;99162.56;4488287;31;34511;-82
2023/06/16 05:08:16;;;;;;;;;;;;;;;21.59;52.57;99170.44;4483479;31;33930;-82
2023/06/16 05:10:47;;;;;;;;;;;;;;;21.68;51.91;99174.25;4493578;31;33040;-81
2023/06/16 05:13:16;;;;;;;;;;;;;;;21.36;52.53;99168.44;4483407;32;34915;-83
2023/06/16 05:15:44;;;;;;;;;;;;;;;21.36;52.75;99171.06;4487433;31;32562;-81
2023/06/16 05:18:18;;;;;;;;;;;;;;;21.02;53.72;99173.25;4486884;31;34121;-83
2023/06/16 05:20:48;;;;;;;;;;;;;;;21.23;52.89;99171.03;4483524;31;32931;-80
2023/06/16 05:23:17;;;;;;;;;;;;;;;21.18;53.94;99171.34;4495792;31;34188;-83
2023/06/16 05:25:47;;;;;;;;;;;;;;;20.84;53.67;99176.16;4477503;31;34938;-82
2023/06/16 05:28:16;;;;;;;;;;;;;;;21.07;52.84;99182.59;4488916;31;35091;-81
2023/06/16 05:30:45;;;;;;;;;;;;;;;21.05;53.20;99178.37;4490125;31;32921;-82
2023/06/16 05:33:14;;;;;;;;;;;;;;;20.82;53.68;99175.38;4494160;31;33271;-83
2023/06/16 05:35:43;;;;;;;;;;;;;;;21.14;52.78;99182.19;4486501;31;34256;-83
2023/06/16 05:38:12;;;;;;;;;;;;;;;21.16;52.94;99181.12;4487068;31;34674;-82
2023/06/16 05:40:41;;;;;;;;;;;;;;;20.85;53.68;99177.84;4485397;31;33092;-83
2023/06/16 05:43:13;;;;;;;;;;;;;;;21.04;52.93;99177.50;4485542;31;33715;-83
2023/06/16 05:45:43;;;;;;;;;;;;;;;20.83;53.82;99184.16;4493121;31;35002;-81
2023/06/16 05:48:20;;;;;;;;;;;;;;;20.88;54.46;99180.28;4487542;31;34631;-81
2023/06/16 05:51:05;;;;;;;;;;;;;;;21.06;53.90;99180.88;4489304;31;32913;-82
2023/06/16 05:53:37;;;;;;;;;;;;;;;20.80;53.86;99181.72;4493135;31;34688;-81
2023/06/16 05:56:08;;;;;;;;;;;;;;;21.18;53.29;99189.81;4477608;31;32388;-81
2023/06/16 05:58:40;;;;;;;;;;;;;;;20.83;54.42;99185.00;4494239;31;34132;-82
2023/06/16 06:01:11;;;;;;;;;;;;;;;20.59;55.29;99191.84;4493096;31;33424;-83
2023/06/16 06:03:44;;;;;;;;;;;;;;;20.54;55.89;99191.22;4492003;31;34267;-82
2023/06/16 06:06:13;;;;;;;;;;;;;;;20.48;55.92;99184.53;4492938;31;34797;-82
2023/06/16 06:08:42;;;;;;;;;;;;;;;20.60;56.65;99189.09;4487096;31;32611;-81
2023/06/16 06:11:13;;;;;;;;;;;;;;;20.71;55.62;99191.06;4483306;31;33496;-82
2023/06/16 06:13:44;;;;;;;;;;;;;;;20.87;55.55;99186.50;4488175;31;35328;-81
2023/06/16 06:16:19;;;;;;;;;;;;;;;21.07;54.82;99187.03;4488901;31;34292;-83
2023/06/16 06:18:48;;;;;;;;;;;;;;;21.05;55.00;99184.47;4482584;31;34470;-81
2023/06/16 06:21:19;;;;;;;;;;;;;;;21.15;54.96;99197.91;4489923;31;33291;-82
2023/06/16 06:23:48;;;;;;;;;;;;;;;21.16;54.61;99196.97;4491409;31;33756;-82
2023/06/16 06:26:18;;;;;;;;;;;;;;;21.13;54.55;99193.69;4488560;31;33845;-82
2023/06/16 06:28:47;;;;;;;;;;;;;;;21.31;54.13;99198.63;4481424;31;34558;-82
2023/06/16 06:31:17;;;;;;;;;;;;;;;21.35;53.84;99201.88;4493629;31;33328;-81
2023/06/16 06:33:45;;;;;;;;;;;;;;;21.29;54.14;99194.41;4482328;31;32303;-80
2023/06/16 06:36:21;;;;;;;;;;;;;;;21.25;54.00;99198.16;4489894;31;35046;-82
2023/06/16 06:38:50;;;;;;;;;;;;;;;21.03;54.70;99204.00;4490573;31;34650;-82
2023/06/16 06:41:19;;;;;;;;;;;;;;;21.10;54.62;99202.66;4485230;31;32691;-80
2023/06/16 06:43:52;;;;;;;;;;;;;;;20.76;55.59;99207.44;4474252;31;33446;-82
2023/06/16 06:46:35;;;;;;;;;;;;;;;20.85;55.17;99209.50;4486204;31;33893;-81
2023/06/16 06:49:06;;;;;;;;;;;;;;;20.96;54.76;99210.59;4492339;31;33615;-83
2023/06/16 06:51:36;;;;;;;;;;;;;;;20.85;55.02;99212.12;4484775;31;33896;-81
2023/06/16 06:54:05;;;;;;;;;;;;;;;20.73;55.17;99218.19;4491022;31;35299;-82
2023/06/16 06:56:34;;;;;;;;;;;;;;;20.68;55.64;99212.31;4495402;31;33974;-81
2023/06/16 06:59:04;;;;;;;;;;;;;;;20.68;55.91;99217.59;4489413;31;34096;-81
2023/06/16 07:01:33;;;;;;;;;;;;;;;21.14;54.46;99212.03;4493024;31;33093;-83
2023/06/16 07:04:05;;;;;;;;;;;;;;;21.26;54.64;99219.19;4488083;31;34688;-81
2023/06/16 07:06:34;;;;;;;;;;;;;;;20.85;55.77;99216.53;4492660;31;33999;-80
2023/06/16 07:09:09;;;;;;;;;;;;;;;20.78;56.07;99213.47;4494838;31;35448;-81
2023/06/16 07:11:54;;;;;;;;;;;;;;;20.97;56.18;99212.28;4492223;31;33097;-81
2023/06/16 07:14:26;;;;;;;;;;;;;;;21.02;54.92;99216.34;4489706;31;33500;-85
2023/06/16 07:16:55;;;;;;;;;;;;;;;20.99;55.30;99221.78;4485713;31;33951;-82
2023/06/16 07:19:33;;;;;;;;;;;;;;;21.25;54.82;99221.91;4492321;31;34712;-83
2023/06/16 07:22:02;;;;;;;;;;;;;;;21.22;54.99;99216.84;4494615;31;32912;-81
2023/06/16 07:24:30;;;;;;;;;;;;;;;21.23;55.16;99221.16;4483822;31;33683;-81
2023/06/16 07:27:04;;;;;;;;;;;;;;;21.21;55.33;99225.69;4478292;31;33479;-81
2023/06/16 07:29:34;;;;;;;;;;;;;;;21.09;55.70;99217.63;4481262;31;33525;-83
2023/06/16 07:32:05;;;;;;;;;;;;;;;21.30;55.20;99225.09;4482011;31;33209;-83
2023/06/16 07:34:34;;;;;;;;;;;;;;;21.68;54.86;99219.97;4478682;31;35900;-83
2023/06/16 07:37:07;;;;;;;;;;;;;;;21.94;53.16;99220.03;4489764;31;33865;-81
2023/06/16 07:39:36;;;;;;;;;;;;;;;21.68;53.74;99225.25;4492595;31;34403;-82
2023/06/16 07:42:05;;;;;;;;;;;;;;;21.84;52.61;99232.13;4493181;31;34128;-81
2023/06/16 07:44:34;;;;;;;;;;;;;;;22.06;52.82;99229.75;4497121;31;33846;-82
2023/06/16 07:47:03;;;;;;;;;;;;;;;22.12;51.68;99231.13;4491720;31;34247;-81
2023/06/16 07:49:32;;;;;;;;;;;;;;;22.04;52.28;99228.19;4488150;31;34462;-82
2023/06/16 07:52:01;;;;;;;;;;;;;;;21.93;52.98;99227.09;4477500;31;31463;-81
2023/06/16 07:54:31;;;;;;;;;;;;;;;22.05;52.75;99227.22;4492388;31;34671;-83
2023/06/16 07:56:59;;;;;;;;;;;;;;;22.06;52.96;99228.88;4489384;31;33805;-84
2023/06/16 07:59:28;;;;;;;;;;;;;;;22.23;52.41;99227.78;4491361;31;34416;-81
2023/06/16 08:01:58;;;;;;;;;;;;;;;22.57;51.56;99229.78;4489779;31;33611;-81
2023/06/16 08:04:29;;;;;;;;;;;;;;;22.55;51.94;99231.69;4491592;31;33676;-83
2023/06/16 08:06:58;;;;;;;;;;;;;;;22.74;51.63;99227.75;4494658;31;33893;-82
2023/06/16 08:09:27;;;;;;;;;;;;;;;23.31;50.43;99228.97;4493664;31;34768;-82
2023/06/16 08:11:56;;;;;;;;;;;;;;;23.25;49.93;99229.44;4493779;31;33382;-82
2023/06/16 08:14:26;;;;;;;;;;;;;;;23.29;49.98;99222.94;4493827;31;34243;-82
2023/06/16 08:16:55;;;;;;;;;;;;;;;23.48;48.75;99227.72;4484070;32;33544;-82
2023/06/16 08:19:25;;;;;;;;;;;;;;;23.53;47.86;99221.13;4478824;32;34276;-82
2023/06/16 08:21:54;;;;;;;;;;;;;;;23.75;47.90;99222.19;4479038;32;32600;-80
2023/06/16 08:24:22;;;;;;;;;;;;;;;23.94;47.10;99226.97;4478501;32;34210;-79
2023/06/16 08:26:53;;;;;;;;;;;;;;;24.08;45.75;99224.09;4483588;31;34534;-80
2023/06/16 08:29:22;;;;;;;;;;;;;;;23.97;46.42;99217.00;4483467;32;34647;-83
2023/06/16 08:31:50;;;;;;;;;;;;;;;24.34;45.81;99218.59;4478937;32;33295;-84
2023/06/16 08:34:19;;;;;;;;;;;;;;;24.12;45.81;99217.63;4491866;31;33505;-81
2023/06/16 08:36:49;;;;;;;;;;;;;;;24.58;45.09;99218.53;4493267;31;33811;-82
2023/06/16 08:39:18;;;;;;;;;;;;;;;24.77;44.58;99223.22;4497542;31;34529;-82
2023/06/16 08:41:47;;;;;;;;;;;;;;;24.78;44.00;99216.94;4494070;31;33061;-82
2023/06/16 08:44:18;;;;;;;;;;;;;;;24.70;43.75;99222.87;4492156;31;34485;-83
2023/06/16 08:46:47;;;;;;;;;;;;;;;25.01;41.38;99215.94;4493101;31;33436;-81
2023/06/16 08:49:18;;;;;;;;;;;;;;;25.00;42.01;99216.06;4498199;31;34895;-81
2023/06/16 08:51:48;;;;;;;;;;;;;;;25.10;41.72;99217.00;4492179;31;33135;-81
2023/06/16 08:54:21;;;;;;;;;;;;;;;24.92;41.73;99219.34;4491420;31;32702;-83
2023/06/16 08:56:51;;;;;;;;;;;;;;;24.16;42.50;99213.78;4488333;31;34026;-81
2023/06/16 08:59:21;;;;;;;;;;;;;;;24.85;41.94;99212.84;4489784;31;34158;-83
2023/06/16 09:01:51;;;;;;;;;;;;;;;25.18;41.75;99214.63;4497960;31;32520;-82
2023/06/16 09:04:22;;;;;;;;;;;;;;;25.61;43.05;99216.37;4489278;31;34532;-82
2023/06/16 09:06:55;;;;;;;;;;;;;;;25.47;43.14;99222.00;4488810;31;33185;-83
2023/06/16 09:09:26;;;;;;;;;;;;;;;25.68;42.68;99209.56;4489896;31;34380;-81
2023/06/16 09:12:04;;;;;;;;;;;;;;;25.50;43.38;99214.63;4484980;31;32951;-82
2023/06/16 09:14:36;;;;;;;;;;;;;;;25.47;43.52;99214.03;4492332;31;32601;-82
2023/06/16 09:17:24;;;;;;;;;;;;;;;25.81;43.42;99216.53;4488207;31;34727;-82
2023/06/16 09:19:55;;;;;;;;;;;;;;;25.98;41.62;99217.81;4484544;31;33935;-82
2023/06/16 09:22:26;;;;;;;;;;;;;;;25.94;42.75;99215.37;4487301;31;34066;-81
2023/06/16 09:24:57;;;;;;;;;;;;;;;25.70;42.72;99218.25;4489021;31;34318;-82
2023/06/16 09:27:28;;;;;;;;;;;;;;;25.71;42.84;99213.81;4495637;31;33705;-82
2023/06/16 09:30:00;;;;;;;;;;;;;;;26.00;42.71;99213.19;4488799;31;33429;-83
2023/06/16 09:32:36;;;;;;;;;;;;;;;26.11;42.09;99218.44;4491842;31;32813;-82
2023/06/16 09:35:18;;;;;;;;;;;;;;;26.45;41.79;99218.19;4483865;31;33436;-82
2023/06/16 09:37:47;;;;;;;;;;;;;;;26.50;42.16;99208.81;4485373;31;33565;-82
2023/06/16 09:40:17;;;;;;;;;;;;;;;26.66;42.02;99205.72;4495842;31;34172;-81
2023/06/16 09:42:47;;;;;;;;;;;;;;;26.56;41.86;99212.81;4493287;31;32864;-81
2023/06/16 09:45:16;;;;;;;;;;;;;;;26.24;41.91;99199.59;4485823;31;33553;-81
2023/06/16 09:47:45;;;;;;;;;;;;;;;26.24;42.47;99192.50;4491048;31;33903;-81
2023/06/16 09:50:15;;;;;;;;;;;;;;;26.38;41.29;99197.44;4495345;31;33195;-82
2023/06/16 09:52:44;;;;;;;;;;;;;;;26.11;41.94;99195.34;4490186;31;32908;-81
2023/06/16 09:55:13;;;;;;;;;;;;;;;25.63;42.92;99198.50;4487789;31;34208;-81
2023/06/16 09:57:43;;;;;;;;;;;;;;;25.62;42.60;99190.66;4492229;31;33882;-81
2023/06/16 10:00:18;;;;;;;;;;;;;;;25.60;42.17;99184.63;4486819;31;34143;-83
2023/06/16 10:02:48;;;;;;;;;;;;;;;26.27;42.97;99184.25;4490705;31;34264;-82
2023/06/16 10:05:18;;;;;;;;;;;;;;;26.14;42.08;99181.81;4489107;31;35049;-82
2023/06/16 10:07:48;;;;;;;;;;;;;;;25.84;42.92;99179.91;4488345;31;34998;-82
2023/06/16 10:10:17;;;;;;;;;;;;;;;25.87;43.25;99179.66;4491238;31;34167;-80
2023/06/16 10:12:48;;;;;;;;;;;;;;;26.07;42.95;99174.47;4495422;31;32391;-82
2023/06/16 10:15:18;;;;;;;;;;;;;;;25.66;42.88;99178.78;4488970;31;33485;-82
2023/06/16 10:17:47;;;;;;;;;;;;;;;25.60;43.42;99177.50;4489328;31;32508;-80
2023/06/16 10:20:16;;;;;;;;;;;;;;;25.35;43.13;99184.03;4470976;31;33242;-82
2023/06/16 10:22:45;;;;;;;;;;;;;;;25.22;43.20;99186.00;4490463;31;33508;-82
2023/06/16 10:25:17;;;;;;;;;;;;;;;24.96;43.40;99188.06;4483429;31;34733;-80
2023/06/16 10:27:48;;;;;;;;;;;;;;;24.60;44.67;99180.31;4486283;31;34471;-80
2023/06/16 10:30:19;;;;;;;;;;;;;;;24.92;44.12;99187.50;4483945;31;34557;-82
2023/06/16 10:32:52;;;;;;;;;;;;;;;24.74;43.63;99186.31;4489397;31;32772;-80
2023/06/16 10:35:24;;;;;;;;;;;;;;;24.78;43.27;99185.94;4493280;31;34146;-80
2023/06/16 10:37:56;;;;;;;;;;;;;;;24.88;43.56;99186.88;4484630;31;33505;-80
2023/06/16 10:40:28;;;;;;;;;;;;;;;24.81;43.91;99185.69;4479973;31;34806;-83
2023/06/16 10:42:58;;;;;;;;;;;;;;;24.96;43.44;99183.63;4486357;31;33736;-82
2023/06/16 10:45:31;;;;;;;;;;;;;;;25.28;42.88;99186.34;4489627;31;34042;-82
2023/06/16 10:48:01;;;;;;;;;;;;;;;25.55;42.46;99180.53;4485593;31;33925;-80
2023/06/16 10:50:31;;;;;;;;;;;;;;;25.31;42.90;99182.59;4484492;31;33975;-81
2023/06/16 10:53:10;;;;;;;;;;;;;;;25.35;41.43;99184.03;4478018;31;33118;-82
2023/06/16 10:55:41;;;;;;;;;;;;;;;25.34;42.07;99185.81;4479334;31;34139;-80
2023/06/16 10:58:30;;;;;;;;;;;;;;;25.52;42.14;99174.66;4485449;31;34206;-81
2023/06/16 11:01:29;;;;;;;;;;;;;;;25.55;41.81;99175.22;4484348;31;33186;-80
2023/06/16 11:04:06;;;;;;;;;;;;;;;25.38;42.73;99183.75;4482795;31;33264;-80
2023/06/16 11:07:00;;;;;;;;;;;;;;;24.94;43.47;99177.59;4467815;31;32315;-81
2023/06/16 11:09:42;;;;;;;;;;;;;;;25.59;43.04;99174.97;4480303;31;34186;-81
2023/06/16 11:12:18;;;;;;;;;;;;;;;25.60;42.13;99166.03;4481834;31;33360;-80
2023/06/16 11:14:48;;;;;;;;;;;;;;;26.43;40.38;99172.25;4479955;31;33580;-81
2023/06/16 11:17:22;;;;;;;;;;;;;;;26.36;39.46;99172.81;4490962;31;34496;-83
2023/06/16 11:19:51;;;;;;;;;;;;;;;26.59;37.18;99173.47;4482860;31;34752;-81
2023/06/16 11:22:30;;;;;;;;;;;;;;;26.83;36.64;99169.63;4485935;31;34559;-82
2023/06/16 11:25:00;;;;;;;;;;;;;;;26.53;35.48;99170.47;4486285;26;33172;-79
2023/06/16 11:27:35;;;;;;;;;;;;;;;26.40;35.96;99163.56;4470944;32;33897;-80
2023/06/16 11:30:11;;;;;;;;;;;;;;;26.57;36.52;99166.59;4477551;32;34197;-82
2023/06/16 11:32:44;;;;;;;;;;;;;;;26.33;38.03;99162.41;4471020;32;34165;-81
2023/06/16 11:35:19;;;;;;;;;;;;;;;26.64;37.11;99162.44;4469012;32;33337;-83
2023/06/16 11:38:11;;;;;;;;;;;;;;;26.77;36.39;99157.72;4467515;32;34125;-80
2023/06/16 11:40:45;;;;;;;;;;;;;;;27.00;36.01;99157.47;4471782;32;34103;-80
2023/06/16 11:43:22;;;;;;;;;;;;;;;27.10;35.08;99150.31;4470221;32;33923;-81
2023/06/16 11:45:56;;;;;;;;;;;;;;;27.63;35.52;99144.59;4476223;32;33287;-81
2023/06/16 11:48:27;;;;;;;;;;;;;;;27.95;35.25;99140.75;4468613;32;34254;-81
2023/06/16 11:50:56;;;;;;;;;;;;;;;27.86;35.20;99133.66;4470180;32;34805;-82
2023/06/16 11:53:33;;;;;;;;;;;;;;;28.21;35.39;99132.97;4470846;32;34030;-82
2023/06/16 11:56:04;;;;;;;;;;;;;;;28.39;33.91;99135.69;4466963;32;33300;-81
2023/06/16 11:58:38;;;;;;;;;;;;;;;27.67;35.26;99124.69;4470919;32;33046;-80
2023/06/16 12:01:13;;;;;;;;;;;;;;;27.93;34.69;99118.72;4467652;32;35104;-83
2023/06/16 12:03:47;;;;;;;;;;;;;;;28.21;33.88;99116.13;4466496;32;34298;-80
2023/06/16 12:06:33;;;;;;;;;;;;;;;28.48;34.55;99118.81;4468170;32;32802;-81
2023/06/16 12:09:04;;;;;;;;;;;;;;;28.17;35.31;99112.06;4468850;32;33592;-80
2023/06/16 12:11:34;;;;;;;;;;;;;;;28.15;35.50;99119.34;4478022;32;35064;-81
2023/06/16 12:14:03;;;;;;;;;;;;;;;28.01;35.56;99113.53;4467924;31;35251;-80
2023/06/16 12:16:32;;;;;;;;;;;;;;;27.78;36.49;99115.66;4470731;32;33299;-81
2023/06/16 12:19:01;;;;;;;;;;;;;;;27.89;36.43;99105.88;4467654;32;34876;-80
2023/06/16 12:21:30;;;;;;;;;;;;;;;28.07;34.50;99107.59;4471812;32;35064;-81
2023/06/16 12:24:00;;;;;;;;;;;;;;;28.13;35.14;99116.84;4468250;32;34614;-80
2023/06/16 12:26:33;;;;;;;;;;;;;;;28.28;34.75;99107.38;4472226;32;32466;-80
2023/06/16 12:29:02;;;;;;;;;;;;;;;28.60;34.08;99099.94;4474259;32;33905;-81
2023/06/16 12:31:32;;;;;;;;;;;;;;;28.54;33.84;99104.06;4476535;32;33765;-80
2023/06/16 12:34:01;;;;;;;;;;;;;;;28.21;34.12;99098.28;4481292;32;33090;-79
2023/06/16 12:36:30;;;;;;;;;;;;;;;28.02;34.38;99106.38;4468654;32;33916;-78
2023/06/16 12:38:59;;;;;;;;;;;;;;;28.04;34.20;99096.41;4478658;32;33742;-79
2023/06/16 12:41:29;;;;;;;;;;;;;;;28.43;35.46;99097.03;4478424;32;33984;-80
2023/06/16 12:43:59;;;;;;;;;;;;;;;28.72;34.66;99096.91;4482964;32;33208;-79
2023/06/16 12:46:28;;;;;;;;;;;;;;;28.91;33.41;99093.25;4477522;32;33037;-81
2023/06/16 12:48:58;;;;;;;;;;;;;;;29.08;34.13;99094.28;4478488;32;34059;-80
2023/06/16 12:51:26;;;;;;;;;;;;;;;28.37;33.38;99099.50;4477028;32;34531;-79
2023/06/16 12:53:55;;;;;;;;;;;;;;;28.07;33.12;99090.78;4477263;32;34879;-79
2023/06/16 12:56:27;;;;;;;;;;;;;;;28.19;34.92;99086.09;4478736;32;33604;-79
2023/06/16 12:58:56;;;;;;;;;;;;;;;28.39;34.54;99082.34;4477781;32;33956;-82
2023/06/16 13:01:24;;;;;;;;;;;;;;;28.44;36.12;99088.06;4478226;32;33908;-79
2023/06/16 13:03:53;;;;;;;;;;;;;;;28.66;34.62;99088.69;4475906;32;34332;-79
2023/06/16 13:06:24;;;;;;;;;;;;;;;28.57;35.75;99092.25;4479051;32;34219;-80